createdAt,value
2022-09-02T00:00:02.912Z,48.82
2022-09-02T00:01:02.900Z,47.86
2022-09-02T00:02:02.982Z,48.82
2022-09-02T00:03:02.989Z,49.79
2022-09-02T00:04:02.900Z,49.95
2022-09-02T00:05:02.869Z,50.27
2022-09-02T00:06:02.871Z,48.50
2022-09-02T00:07:02.879Z,47.21
2022-09-02T00:08:02.852Z,49.79
2022-09-02T00:09:02.857Z,51.72
2022-09-02T00:10:02.836Z,48.98
2022-09-02T00:11:02.855Z,48.66
2022-09-02T00:12:02.851Z,47.21
2022-09-02T00:13:02.829Z,48.18
2022-09-02T00:14:02.866Z,48.34
2022-09-02T00:15:02.853Z,49.31
2022-09-02T00:16:02.831Z,46.89
2022-09-02T00:17:02.794Z,48.02
2022-09-02T00:18:02.800Z,47.21
2022-09-02T00:19:02.838Z,48.02
2022-09-02T00:20:02.768Z,48.98
2022-09-02T00:21:02.772Z,49.63
2022-09-02T00:22:02.747Z,49.15
2022-09-02T00:23:02.737Z,49.95
2022-09-02T00:24:02.736Z,48.50
2022-09-02T00:25:02.725Z,48.50
2022-09-02T00:26:02.713Z,48.50
2022-09-02T00:27:02.720Z,47.53
2022-09-02T00:28:02.715Z,47.70
2022-09-02T00:29:02.689Z,47.37
2022-09-02T00:30:02.707Z,47.53
2022-09-02T00:31:02.678Z,51.72
2022-09-02T00:32:02.753Z,46.57
2022-09-02T00:33:02.669Z,50.76
2022-09-02T00:34:02.684Z,46.41
2022-09-02T00:35:02.652Z,46.41
2022-09-02T00:36:02.631Z,46.25
2022-09-02T00:37:02.664Z,47.53
2022-09-02T00:38:02.628Z,46.89
2022-09-02T00:39:02.627Z,46.73
2022-09-02T00:40:02.657Z,46.25
2022-09-02T00:41:02.628Z,45.44
2022-09-02T00:42:02.635Z,46.25
2022-09-02T00:43:02.592Z,46.41
2022-09-02T00:44:02.591Z,47.21
2022-09-02T00:45:02.596Z,46.25
2022-09-02T00:46:02.642Z,46.41
2022-09-02T00:47:02.601Z,46.89
2022-09-02T00:48:02.575Z,47.21
2022-09-02T00:49:02.587Z,47.70
2022-09-02T00:50:02.553Z,47.21
2022-09-02T00:51:02.551Z,47.05
2022-09-02T00:52:02.557Z,48.66
2022-09-02T00:53:02.528Z,46.89
2022-09-02T00:54:02.523Z,46.57
2022-09-02T00:55:02.524Z,46.57
2022-09-02T00:56:02.503Z,45.76
2022-09-02T00:57:02.523Z,45.76
2022-09-02T00:58:02.511Z,45.76
2022-09-02T00:59:02.485Z,45.76
2022-09-02T01:00:02.499Z,46.89
2022-09-02T01:01:02.594Z,46.89
2022-09-02T01:02:02.583Z,46.41
2022-09-02T01:03:02.483Z,47.05
2022-09-02T01:04:02.453Z,47.05
2022-09-02T01:05:02.461Z,46.57
2022-09-02T01:06:02.437Z,46.25
2022-09-02T01:07:02.449Z,47.37
2022-09-02T01:08:02.442Z,46.89
2022-09-02T01:09:02.417Z,46.73
2022-09-02T01:10:02.422Z,46.57
2022-09-02T01:11:02.414Z,49.15
2022-09-02T01:12:02.437Z,48.02
2022-09-02T01:13:02.405Z,48.34
2022-09-02T01:14:02.386Z,46.73
2022-09-02T01:15:02.382Z,47.70
2022-09-02T01:16:02.412Z,47.05
2022-09-02T01:17:02.377Z,47.05
2022-09-02T01:18:02.365Z,47.53
2022-09-02T01:19:02.361Z,47.53
2022-09-02T01:20:02.355Z,47.86
2022-09-02T01:21:02.329Z,46.57
2022-09-02T01:22:02.329Z,47.05
2022-09-02T01:23:02.361Z,47.86
2022-09-02T01:24:02.338Z,49.79
2022-09-02T01:25:02.306Z,48.66
2022-09-02T01:26:02.313Z,48.82
2022-09-02T01:27:02.308Z,48.18
2022-09-02T01:28:02.305Z,46.57
2022-09-02T01:29:02.281Z,47.86
2022-09-02T01:30:02.289Z,47.37
2022-09-02T01:31:02.346Z,48.02
2022-09-02T01:32:02.273Z,48.50
2022-09-02T01:33:02.277Z,47.37
2022-09-02T01:34:02.254Z,47.53
2022-09-02T01:35:02.261Z,47.37
2022-09-02T01:36:02.237Z,47.05
2022-09-02T01:37:02.230Z,48.18
2022-09-02T01:38:02.223Z,47.05
2022-09-02T01:39:02.237Z,46.25
2022-09-02T01:40:02.209Z,49.95
2022-09-02T01:41:02.209Z,45.12
2022-09-02T01:42:02.209Z,45.28
2022-09-02T01:43:02.205Z,45.76
2022-09-02T01:44:02.219Z,45.76
2022-09-02T01:45:02.190Z,45.92
2022-09-02T01:46:02.179Z,47.05
2022-09-02T01:47:02.243Z,46.89
2022-09-02T01:48:02.161Z,46.57
2022-09-02T01:49:02.150Z,46.41
2022-09-02T01:50:02.173Z,48.02
2022-09-02T01:51:02.138Z,48.34
2022-09-02T01:52:02.137Z,47.05
2022-09-02T01:53:02.130Z,47.86
2022-09-02T01:54:02.123Z,48.34
2022-09-02T01:55:02.118Z,47.05
2022-09-02T01:56:02.105Z,47.37
2022-09-02T01:57:02.093Z,47.86
2022-09-02T01:58:02.119Z,48.18
2022-09-02T01:59:02.081Z,47.53
2022-09-02T02:00:02.065Z,48.02
2022-09-02T02:01:02.205Z,48.34
2022-09-02T02:02:02.121Z,47.53
2022-09-02T02:03:02.119Z,47.37
2022-09-02T02:04:02.057Z,48.98
2022-09-02T02:05:02.033Z,47.37
2022-09-02T02:06:02.050Z,47.21
2022-09-02T02:07:02.037Z,47.86
2022-09-02T02:08:02.021Z,47.86
2022-09-02T02:09:02.018Z,46.89
2022-09-02T02:10:02.008Z,47.86
2022-09-02T02:11:02.001Z,48.50
2022-09-02T02:12:02.023Z,48.98
2022-09-02T02:13:01.981Z,48.82
2022-09-02T02:14:01.986Z,48.98
2022-09-02T02:15:01.974Z,49.95
2022-09-02T02:16:02.048Z,47.21
2022-09-02T02:17:01.968Z,46.73
2022-09-02T02:18:01.947Z,47.86
2022-09-02T02:19:01.948Z,48.34
2022-09-02T02:20:01.938Z,47.86
2022-09-02T02:21:01.960Z,49.79
2022-09-02T02:22:01.912Z,47.86
2022-09-02T02:23:01.912Z,48.66
2022-09-02T02:24:01.909Z,49.63
2022-09-02T02:25:01.900Z,48.98
2022-09-02T02:26:01.910Z,47.37
2022-09-02T02:27:01.902Z,48.18
2022-09-02T02:28:02.573Z,48.50
2022-09-02T02:29:01.872Z,47.86
2022-09-02T02:30:01.868Z,48.82
2022-09-02T02:31:01.877Z,47.37
2022-09-02T02:32:01.863Z,47.86
2022-09-02T02:33:01.853Z,46.25
2022-09-02T02:34:01.849Z,47.53
2022-09-02T02:35:01.846Z,47.21
2022-09-02T02:36:01.830Z,47.37
2022-09-02T02:37:01.827Z,48.50
2022-09-02T02:38:03.645Z,48.34
2022-09-02T02:39:01.840Z,47.37
2022-09-02T02:40:01.799Z,47.05
2022-09-02T02:41:01.809Z,46.57
2022-09-02T02:42:01.788Z,47.86
2022-09-02T02:43:01.776Z,48.18
2022-09-02T02:44:01.793Z,47.53
2022-09-02T02:45:01.765Z,46.89
2022-09-02T02:46:01.770Z,47.86
2022-09-02T02:47:01.799Z,47.86
2022-09-02T02:48:01.761Z,48.82
2022-09-02T02:49:01.732Z,51.56
2022-09-02T02:50:01.740Z,48.82
2022-09-02T02:51:01.736Z,48.34
2022-09-02T02:52:01.724Z,48.50
2022-09-02T02:53:01.709Z,48.66
2022-09-02T02:54:01.708Z,48.18
2022-09-02T02:55:01.700Z,48.98
2022-09-02T02:56:02.711Z,49.95
2022-09-02T02:57:01.696Z,48.98
2022-09-02T02:58:01.692Z,49.63
2022-09-02T02:59:01.662Z,49.31
2022-09-02T03:00:01.664Z,50.27
2022-09-02T03:01:01.677Z,47.37
2022-09-02T03:02:01.769Z,47.86
2022-09-02T03:03:01.703Z,49.15
2022-09-02T03:04:01.656Z,48.50
2022-09-02T03:05:01.635Z,47.37
2022-09-02T03:06:01.620Z,52.05
2022-09-02T03:07:01.616Z,47.86
2022-09-02T03:08:01.620Z,47.37
2022-09-02T03:09:01.612Z,49.31
2022-09-02T03:10:01.601Z,48.66
2022-09-02T03:11:01.609Z,49.31
2022-09-02T03:12:01.588Z,47.70
2022-09-02T03:13:01.591Z,54.46
2022-09-02T03:14:01.627Z,48.34
2022-09-02T03:15:01.578Z,49.63
2022-09-02T03:16:01.631Z,49.95
2022-09-02T03:17:01.561Z,51.72
2022-09-02T03:18:01.548Z,56.07
2022-09-02T03:19:01.584Z,52.85
2022-09-02T03:20:01.558Z,51.88
2022-09-02T03:21:01.669Z,50.11
2022-09-02T03:22:01.520Z,59.46
2022-09-02T03:23:01.528Z,50.27
2022-09-02T03:24:01.516Z,55.43
2022-09-02T03:25:01.512Z,55.59
2022-09-02T03:26:01.507Z,47.53
2022-09-02T03:27:01.557Z,49.31
2022-09-02T03:28:01.500Z,48.34
2022-09-02T03:29:01.548Z,51.40
2022-09-02T03:30:01.524Z,51.72
2022-09-02T03:31:01.509Z,48.66
2022-09-02T03:32:01.463Z,53.50
2022-09-02T03:33:04.010Z,54.95
2022-09-02T03:34:02.461Z,49.63
2022-09-02T03:35:01.447Z,48.02
2022-09-02T03:36:01.451Z,52.37
2022-09-02T03:37:01.471Z,51.40
2022-09-02T03:38:01.433Z,48.82
2022-09-02T03:39:01.468Z,51.24
2022-09-02T03:40:01.431Z,56.88
2022-09-02T03:41:01.420Z,50.27
2022-09-02T03:42:01.409Z,53.33
2022-09-02T03:43:01.412Z,49.63
2022-09-02T03:44:01.404Z,54.46
2022-09-02T03:45:01.404Z,61.39
2022-09-02T03:46:01.476Z,53.82
2022-09-02T03:47:01.390Z,56.40
2022-09-02T03:48:01.388Z,66.06
2022-09-02T03:49:01.382Z,49.79
2022-09-02T03:50:01.388Z,53.01
2022-09-02T03:51:01.359Z,53.17
2022-09-02T03:52:01.339Z,63.97
2022-09-02T03:53:01.351Z,60.59
2022-09-02T03:54:01.344Z,51.24
2022-09-02T03:55:01.332Z,50.76
2022-09-02T03:56:01.343Z,56.07
2022-09-02T03:57:01.335Z,55.27
2022-09-02T03:58:04.343Z,55.27
2022-09-02T03:59:02.295Z,50.92
2022-09-02T04:00:01.325Z,54.30
2022-09-02T04:01:01.304Z,55.43
2022-09-02T04:02:01.366Z,64.61
2022-09-02T04:03:01.334Z,52.21
2022-09-02T04:04:01.283Z,58.49
2022-09-02T04:05:01.263Z,50.11
2022-09-02T04:06:01.291Z,59.46
2022-09-02T04:07:01.251Z,55.75
2022-09-02T04:08:01.243Z,64.78
2022-09-02T04:09:01.247Z,52.21
2022-09-02T04:10:01.239Z,59.78
2022-09-02T04:11:01.256Z,57.69
2022-09-02T04:12:01.224Z,54.30
2022-09-02T04:13:01.219Z,52.53
2022-09-02T04:14:01.210Z,53.50
2022-09-02T04:15:01.195Z,54.46
2022-09-02T04:16:02.191Z,51.24
2022-09-02T04:17:02.201Z,52.85
2022-09-02T04:18:01.379Z,51.72
2022-09-02T04:19:01.183Z,61.23
2022-09-02T04:20:01.263Z,53.01
2022-09-02T04:21:01.160Z,51.08
2022-09-02T04:22:01.184Z,52.85
2022-09-02T04:23:01.164Z,50.43
2022-09-02T04:24:01.171Z,57.52
2022-09-02T04:25:01.135Z,53.33
2022-09-02T04:26:01.140Z,50.27
2022-09-02T04:27:04.273Z,55.91
2022-09-02T04:28:02.131Z,59.30
2022-09-02T04:29:01.131Z,60.42
2022-09-02T04:30:01.129Z,51.40
2022-09-02T04:31:01.167Z,59.30
2022-09-02T04:32:01.107Z,58.49
2022-09-02T04:33:01.131Z,61.55
2022-09-02T04:34:01.085Z,51.72
2022-09-02T04:35:01.080Z,56.72
2022-09-02T04:36:01.076Z,56.72
2022-09-02T04:37:01.088Z,53.98
2022-09-02T04:38:01.075Z,51.24
2022-09-02T04:39:01.054Z,62.84
2022-09-02T04:40:01.063Z,61.39
2022-09-02T04:41:01.056Z,61.07
2022-09-02T04:42:01.095Z,61.07
2022-09-02T04:43:01.027Z,56.56
2022-09-02T04:44:01.042Z,68.00
2022-09-02T04:45:01.059Z,63.49
2022-09-02T04:46:01.094Z,67.19
2022-09-02T04:47:01.043Z,61.55
2022-09-02T04:48:00.999Z,52.37
2022-09-02T04:49:00.992Z,53.50
2022-09-02T04:50:00.971Z,58.81
2022-09-02T04:51:00.979Z,63.49
2022-09-02T04:52:00.985Z,65.90
2022-09-02T04:53:00.982Z,62.04
2022-09-02T04:54:01.955Z,55.27
2022-09-02T04:55:00.963Z,52.05
2022-09-02T04:56:00.959Z,61.23
2022-09-02T04:57:00.950Z,54.62
2022-09-02T04:58:00.947Z,56.88
2022-09-02T04:59:00.935Z,51.24
2022-09-02T05:00:00.940Z,51.08
2022-09-02T05:01:00.924Z,52.21
2022-09-02T05:02:01.025Z,60.10
2022-09-02T05:03:00.986Z,55.43
2022-09-02T05:04:00.886Z,49.47
2022-09-02T05:05:00.895Z,51.24
2022-09-02T05:06:00.889Z,50.11
2022-09-02T05:07:00.907Z,64.94
2022-09-02T05:08:00.875Z,53.50
2022-09-02T05:09:00.891Z,57.20
2022-09-02T05:10:00.871Z,51.72
2022-09-02T05:11:00.856Z,53.01
2022-09-02T05:12:00.944Z,63.16
2022-09-02T05:13:00.838Z,57.36
2022-09-02T05:14:00.851Z,50.76
2022-09-02T05:15:00.823Z,58.97
2022-09-02T05:16:01.914Z,60.59
2022-09-02T05:17:05.210Z,53.82
2022-09-02T05:18:03.716Z,60.75
2022-09-02T05:19:00.823Z,64.94
2022-09-02T05:20:00.811Z,60.59
2022-09-02T05:21:00.791Z,55.75
2022-09-02T05:22:00.792Z,52.37
2022-09-02T05:23:00.791Z,62.68
2022-09-02T05:24:00.799Z,57.36
2022-09-02T05:25:00.787Z,60.75
2022-09-02T05:26:00.759Z,51.08
2022-09-02T05:27:00.758Z,58.49
2022-09-02T05:28:00.767Z,54.14
2022-09-02T05:29:00.755Z,55.91
2022-09-02T05:30:00.750Z,64.13
2022-09-02T05:31:00.767Z,57.69
2022-09-02T05:32:00.759Z,53.33
2022-09-02T05:33:00.707Z,58.49
2022-09-02T05:34:00.723Z,52.53
2022-09-02T05:35:00.812Z,61.07
2022-09-02T05:36:00.705Z,51.56
2022-09-02T05:37:00.689Z,53.66
2022-09-02T05:38:01.249Z,54.62
2022-09-02T05:39:01.696Z,55.43
2022-09-02T05:40:01.333Z,51.72
2022-09-02T05:41:00.669Z,63.81
2022-09-02T05:42:00.657Z,57.36
2022-09-02T05:43:00.657Z,54.79
2022-09-02T05:44:01.626Z,60.91
2022-09-02T05:45:00.673Z,50.60
2022-09-02T05:46:00.642Z,66.87
2022-09-02T05:47:00.654Z,57.36
2022-09-02T05:48:00.630Z,59.78
2022-09-02T05:49:00.642Z,54.62
2022-09-02T05:50:00.653Z,68.64
2022-09-02T05:51:00.605Z,59.30
2022-09-02T05:52:00.601Z,63.49
2022-09-02T05:53:00.591Z,53.33
2022-09-02T05:54:00.578Z,53.98
2022-09-02T05:55:00.601Z,61.07
2022-09-02T05:56:00.612Z,58.81
2022-09-02T05:57:00.567Z,60.59
2022-09-02T05:58:00.552Z,52.85
2022-09-02T05:59:01.731Z,50.27
2022-09-02T06:00:01.537Z,56.40
2022-09-02T06:01:00.776Z,51.72
2022-09-02T06:02:00.612Z,59.94
2022-09-02T06:03:00.582Z,64.45
2022-09-02T06:04:00.539Z,50.11
2022-09-02T06:05:00.587Z,62.52
2022-09-02T06:06:05.850Z,64.29
2022-09-02T06:07:02.506Z,64.78
2022-09-02T06:08:01.019Z,61.87
2022-09-02T06:09:00.495Z,58.33
2022-09-02T06:10:00.510Z,58.33
2022-09-02T06:11:00.493Z,67.35
2022-09-02T06:12:00.482Z,66.87
2022-09-02T06:13:00.462Z,59.62
2022-09-02T06:14:00.469Z,57.69
2022-09-02T06:15:00.467Z,54.14
2022-09-02T06:16:00.531Z,60.10
2022-09-02T06:17:00.445Z,63.49
2022-09-02T06:18:00.433Z,52.53
2022-09-02T06:19:00.430Z,51.08
2022-09-02T06:20:00.454Z,55.43
2022-09-02T06:21:00.406Z,56.88
2022-09-02T06:22:00.418Z,56.88
2022-09-02T06:23:00.463Z,56.24
2022-09-02T06:24:00.419Z,54.79
2022-09-02T06:25:00.391Z,49.15
2022-09-02T06:26:00.382Z,54.30
2022-09-02T06:27:00.383Z,49.63
2022-09-02T06:28:04.027Z,68.64
2022-09-02T06:29:01.367Z,63.65
2022-09-02T06:30:00.358Z,61.39
2022-09-02T06:31:00.406Z,60.10
2022-09-02T06:32:00.337Z,54.79
2022-09-02T06:33:00.326Z,53.66
2022-09-02T06:34:00.327Z,64.61
2022-09-02T06:35:00.321Z,54.95
2022-09-02T06:36:00.309Z,51.72
2022-09-02T06:37:00.426Z,53.01
2022-09-02T06:38:00.282Z,64.13
2022-09-02T06:39:00.311Z,55.59
2022-09-02T06:40:00.287Z,59.94
2022-09-02T06:41:01.271Z,54.46
2022-09-02T06:42:00.295Z,64.61
2022-09-02T06:43:00.257Z,50.76
2022-09-02T06:44:00.309Z,61.87
2022-09-02T06:45:00.295Z,55.27
2022-09-02T06:46:00.312Z,62.04
2022-09-02T06:47:00.275Z,69.45
2022-09-02T06:48:00.230Z,49.63
2022-09-02T06:49:00.227Z,61.55
2022-09-02T06:50:00.224Z,51.56
2022-09-02T06:51:01.114Z,64.78
2022-09-02T06:52:01.026Z,62.20
2022-09-02T06:53:00.198Z,57.36
2022-09-02T06:54:00.674Z,68.96
2022-09-02T06:55:00.160Z,62.84
2022-09-02T06:56:00.212Z,50.43
2022-09-02T06:57:00.156Z,48.50
2022-09-02T06:58:01.068Z,62.52
2022-09-02T06:59:00.175Z,55.27
2022-09-02T07:00:02.059Z,55.59
2022-09-02T07:01:00.256Z,57.20
2022-09-02T07:02:00.297Z,49.95
2022-09-02T07:03:00.139Z,57.04
2022-09-02T07:04:00.123Z,62.04
2022-09-02T07:05:00.100Z,51.56
2022-09-02T07:06:00.115Z,65.10
2022-09-02T07:07:00.115Z,51.08
2022-09-02T07:08:00.078Z,52.37
2022-09-02T07:09:00.077Z,62.20
2022-09-02T07:10:01.058Z,58.97
2022-09-02T07:11:00.141Z,54.79
2022-09-02T07:12:04.203Z,53.82
2022-09-02T07:13:01.042Z,52.53
2022-09-02T07:14:00.023Z,60.91
2022-09-02T07:15:00.028Z,63.97
2022-09-02T07:16:00.044Z,65.90
2022-09-02T07:17:01.144Z,60.10
2022-09-02T07:18:00.021Z,63.97
2022-09-02T07:18:59.991Z,52.69
2022-09-02T07:20:00.014Z,61.07
2022-09-02T07:20:59.992Z,67.35
2022-09-02T07:21:59.991Z,56.56
2022-09-02T07:22:59.961Z,54.95
2022-09-02T07:23:59.960Z,45.76
2022-09-02T07:24:59.953Z,50.92
2022-09-02T07:25:59.941Z,51.40
2022-09-02T07:26:59.959Z,60.59
2022-09-02T07:27:59.932Z,44.96
2022-09-02T07:28:59.940Z,55.43
2022-09-02T07:29:59.930Z,65.10
2022-09-02T07:31:00.110Z,60.91
2022-09-02T07:31:59.926Z,58.81
2022-09-02T07:32:59.896Z,60.26
2022-09-02T07:33:59.897Z,51.88
2022-09-02T07:34:59.891Z,58.33
2022-09-02T07:35:59.892Z,63.81
2022-09-02T07:37:05.119Z,65.10
2022-09-02T07:38:01.956Z,51.56
2022-09-02T07:38:59.865Z,64.94
2022-09-02T07:39:59.877Z,54.62
2022-09-02T07:40:59.876Z,49.47
2022-09-02T07:41:59.857Z,55.11
2022-09-02T07:42:59.832Z,52.05
2022-09-02T07:43:59.979Z,58.97
2022-09-02T07:44:59.827Z,52.05
2022-09-02T07:45:59.860Z,64.45
2022-09-02T07:46:59.821Z,65.90
2022-09-02T07:47:59.809Z,54.95
2022-09-02T07:48:59.789Z,56.40
2022-09-02T07:50:18.551Z,48.66
2022-09-02T07:51:01.797Z,53.33
2022-09-02T07:51:59.762Z,55.59
2022-09-02T07:52:59.766Z,61.55
2022-09-02T07:54:00.809Z,54.46
2022-09-02T07:54:59.749Z,52.85
2022-09-02T07:55:59.759Z,55.11
2022-09-02T07:56:59.734Z,53.50
2022-09-02T07:57:59.759Z,60.26
2022-09-02T07:58:59.735Z,66.06
2022-09-02T07:59:59.733Z,60.59
2022-09-02T08:00:59.816Z,61.07
2022-09-02T08:01:59.779Z,65.90
2022-09-02T08:02:59.779Z,60.26
2022-09-02T08:04:01.593Z,57.36
2022-09-02T08:05:00.669Z,50.60
2022-09-02T08:05:59.677Z,55.91
2022-09-02T08:06:59.673Z,56.88
2022-09-02T08:07:59.705Z,62.52
2022-09-02T08:08:59.662Z,58.49
2022-09-02T08:09:59.657Z,54.95
2022-09-02T08:10:59.656Z,59.46
2022-09-02T08:11:59.673Z,62.04
2022-09-02T08:12:59.667Z,58.49
2022-09-02T08:13:59.700Z,66.06
2022-09-02T08:14:59.624Z,67.19
2022-09-02T08:15:59.619Z,54.14
2022-09-02T08:16:59.642Z,57.52
2022-09-02T08:17:59.624Z,54.95
2022-09-02T08:18:59.621Z,63.00
2022-09-02T08:19:59.612Z,57.20
2022-09-02T08:20:59.581Z,65.10
2022-09-02T08:21:59.579Z,63.97
2022-09-02T08:23:11.006Z,58.01
2022-09-02T08:24:00.600Z,61.39
2022-09-02T08:24:59.570Z,55.11
2022-09-02T08:25:59.565Z,51.24
2022-09-02T08:26:59.561Z,65.26
2022-09-02T08:27:59.545Z,51.72
2022-09-02T08:28:59.561Z,59.78
2022-09-02T08:29:59.528Z,59.78
2022-09-02T08:30:59.737Z,60.91
2022-09-02T08:31:59.640Z,61.23
2022-09-02T08:32:59.525Z,60.59
2022-09-02T08:33:59.586Z,61.07
2022-09-02T08:34:59.570Z,63.16
2022-09-02T08:35:59.514Z,64.94
2022-09-02T08:36:59.489Z,62.84
2022-09-02T08:37:59.562Z,68.96
2022-09-02T08:38:59.482Z,62.04
2022-09-02T08:39:59.490Z,59.78
2022-09-02T08:40:59.502Z,59.94
2022-09-02T08:42:59.459Z,64.45
2022-09-02T08:43:59.451Z,58.97
2022-09-02T08:44:59.468Z,59.14
2022-09-02T08:45:59.481Z,60.91
2022-09-02T08:46:59.431Z,59.94
2022-09-02T08:47:59.437Z,65.74
2022-09-02T08:48:59.669Z,63.00
2022-09-02T08:49:59.414Z,56.72
2022-09-02T08:50:59.438Z,60.91
2022-09-02T08:52:00.944Z,65.26
2022-09-02T08:52:59.371Z,68.32
2022-09-02T08:53:59.360Z,65.58
2022-09-02T08:54:59.380Z,59.46
2022-09-02T08:55:59.384Z,63.33
2022-09-02T08:56:59.364Z,58.81
2022-09-02T08:57:59.670Z,60.26
2022-09-02T08:58:59.341Z,62.84
2022-09-02T08:59:59.336Z,63.97
2022-09-02T09:00:59.369Z,58.49
2022-09-02T09:02:01.047Z,62.52
2022-09-02T09:02:59.306Z,65.58
2022-09-02T09:04:00.113Z,55.75
2022-09-02T09:04:59.368Z,58.01
2022-09-02T09:06:00.138Z,54.95
2022-09-02T09:06:59.299Z,65.58
2022-09-02T09:07:59.296Z,60.91
2022-09-02T09:08:59.308Z,60.75
2022-09-02T09:09:59.281Z,60.91
2022-09-02T09:10:59.337Z,58.33
2022-09-02T09:11:59.267Z,57.04
2022-09-02T09:12:59.268Z,57.52
2022-09-02T09:13:59.254Z,63.49
2022-09-02T09:14:59.243Z,64.94
2022-09-02T09:15:59.359Z,63.00
2022-09-02T09:16:59.362Z,67.19
2022-09-02T09:17:59.220Z,54.30
2022-09-02T09:18:59.332Z,54.79
2022-09-02T09:19:59.203Z,62.68
2022-09-02T09:20:59.211Z,56.07
2022-09-02T09:21:59.234Z,55.59
2022-09-02T09:22:59.219Z,67.51
2022-09-02T09:23:59.185Z,56.88
2022-09-02T09:24:59.216Z,50.92
2022-09-02T09:25:59.168Z,64.61
2022-09-02T09:26:59.199Z,63.00
2022-09-02T09:27:59.183Z,63.97
2022-09-02T09:28:59.308Z,58.33
2022-09-02T09:29:59.151Z,64.13
2022-09-02T09:30:59.134Z,56.40
2022-09-02T09:31:59.227Z,66.55
2022-09-02T09:32:59.145Z,59.30
2022-09-02T09:33:59.139Z,56.88
2022-09-02T09:34:59.125Z,58.81
2022-09-02T09:35:59.157Z,68.80
2022-09-02T09:36:59.101Z,65.90
2022-09-02T09:37:59.102Z,65.90
2022-09-02T09:38:59.125Z,61.55
2022-09-02T09:39:59.116Z,65.26
2022-09-02T09:40:59.090Z,58.97
2022-09-02T09:41:59.084Z,65.58
2022-09-02T09:42:59.147Z,58.49
2022-09-02T09:43:59.077Z,62.36
2022-09-02T09:44:59.117Z,65.90
2022-09-02T09:45:59.097Z,65.26
2022-09-02T09:46:59.099Z,65.10
2022-09-02T09:47:59.027Z,65.42
2022-09-02T09:48:59.134Z,66.39
2022-09-02T09:50:00.098Z,62.68
2022-09-02T09:50:59.036Z,57.36
2022-09-02T09:51:59.075Z,67.19
2022-09-02T09:52:59.034Z,66.87
2022-09-02T09:53:59.028Z,60.91
2022-09-02T09:54:58.997Z,59.94
2022-09-02T09:55:59.005Z,61.55
2022-09-02T09:56:59.000Z,66.23
2022-09-02T09:57:58.983Z,60.59
2022-09-02T09:58:58.977Z,59.62
2022-09-02T09:59:59.049Z,65.74
2022-09-02T10:00:59.028Z,66.39
2022-09-02T10:01:58.989Z,65.74
2022-09-02T10:02:58.943Z,60.26
2022-09-02T10:03:58.962Z,59.94
2022-09-02T10:04:58.952Z,60.26
2022-09-02T10:05:58.964Z,66.39
2022-09-02T10:06:58.928Z,59.78
2022-09-02T10:07:58.938Z,59.14
2022-09-02T10:08:58.919Z,59.46
2022-09-02T10:09:58.895Z,63.00
2022-09-02T10:10:58.936Z,64.61
2022-09-02T10:11:58.888Z,61.39
2022-09-02T10:12:58.881Z,62.36
2022-09-02T10:13:58.911Z,57.36
2022-09-02T10:14:58.875Z,64.13
2022-09-02T10:15:58.939Z,60.59
2022-09-02T10:16:58.853Z,60.10
2022-09-02T10:17:58.855Z,55.91
2022-09-02T10:18:58.894Z,58.97
2022-09-02T10:19:58.879Z,63.33
2022-09-02T10:21:13.950Z,59.62
2022-09-02T10:22:01.563Z,62.20
2022-09-02T10:23:00.526Z,65.58
2022-09-02T10:23:58.849Z,59.78
2022-09-02T10:24:58.813Z,61.71
2022-09-02T10:25:58.793Z,63.97
2022-09-02T10:26:58.806Z,63.65
2022-09-02T10:27:58.779Z,60.91
2022-09-02T10:29:00.824Z,61.71
2022-09-02T10:29:59.781Z,63.16
2022-09-02T10:30:58.843Z,62.04
2022-09-02T10:31:58.759Z,68.96
2022-09-02T10:32:58.767Z,64.29
2022-09-02T10:33:58.747Z,58.81
2022-09-02T10:34:58.767Z,52.85
2022-09-02T10:35:58.737Z,64.13
2022-09-02T10:36:58.756Z,59.94
2022-09-02T10:37:58.832Z,66.39
2022-09-02T10:38:58.713Z,55.59
2022-09-02T10:39:58.745Z,65.90
2022-09-02T10:40:58.795Z,65.10
2022-09-02T10:41:58.701Z,67.35
2022-09-02T10:42:58.694Z,60.75
2022-09-02T10:43:59.702Z,66.39
2022-09-02T10:44:59.150Z,64.45
2022-09-02T10:45:59.686Z,63.81
2022-09-02T10:46:58.722Z,66.87
2022-09-02T10:47:58.679Z,64.13
2022-09-02T10:48:58.673Z,68.96
2022-09-02T10:49:58.666Z,63.16
2022-09-02T10:50:58.653Z,61.07
2022-09-02T10:52:00.237Z,68.32
2022-09-02T10:52:58.991Z,65.42
2022-09-02T10:53:58.631Z,69.13
2022-09-02T10:54:58.668Z,65.10
2022-09-02T10:55:58.683Z,64.13
2022-09-02T10:56:58.644Z,62.20
2022-09-02T10:57:58.604Z,62.04
2022-09-02T10:59:59.659Z,61.07
2022-09-02T11:00:59.072Z,52.21
2022-09-02T11:01:58.629Z,55.91
2022-09-02T11:02:58.645Z,64.29
2022-09-02T11:03:58.691Z,65.26
2022-09-02T11:04:58.612Z,66.55
2022-09-02T11:05:58.576Z,63.97
2022-09-02T11:07:02.793Z,63.33
2022-09-02T11:07:59.579Z,63.65
2022-09-02T11:08:58.556Z,63.49
2022-09-02T11:09:58.557Z,55.43
2022-09-02T11:10:58.568Z,59.30
2022-09-02T11:12:00.268Z,62.36
2022-09-02T11:12:59.557Z,66.39
2022-09-02T11:13:58.585Z,65.74
2022-09-02T11:14:58.600Z,67.03
2022-09-02T11:15:58.611Z,67.84
2022-09-02T11:16:58.562Z,61.07
2022-09-02T11:17:58.518Z,61.55
2022-09-02T11:18:58.578Z,57.69
2022-09-02T11:19:58.526Z,64.29
2022-09-02T11:20:58.477Z,63.00
2022-09-02T11:21:58.480Z,64.13
2022-09-02T11:22:58.521Z,57.85
2022-09-02T11:23:58.472Z,62.36
2022-09-02T11:24:59.475Z,63.97
2022-09-02T11:25:58.451Z,64.13
2022-09-02T11:26:58.496Z,61.39
2022-09-02T11:27:58.471Z,66.39
2022-09-02T11:28:58.484Z,61.23
2022-09-02T11:29:58.499Z,64.94
2022-09-02T11:30:58.431Z,61.39
2022-09-02T11:31:58.433Z,58.33
2022-09-02T11:32:58.430Z,65.58
2022-09-02T11:33:58.486Z,64.94
2022-09-02T11:34:58.403Z,63.65
2022-09-02T11:35:58.418Z,66.71
2022-09-02T11:36:58.399Z,64.29
2022-09-02T11:37:58.414Z,66.87
2022-09-02T11:38:58.599Z,66.06
2022-09-02T11:40:11.658Z,61.07
2022-09-02T11:42:00.388Z,64.94
2022-09-02T11:42:58.365Z,65.74
2022-09-02T11:43:58.345Z,67.84
2022-09-02T11:44:58.387Z,62.52
2022-09-02T11:45:58.362Z,63.00
2022-09-02T11:46:58.371Z,65.74
2022-09-02T11:47:58.310Z,67.51
2022-09-02T11:48:58.337Z,66.06
2022-09-02T11:49:58.320Z,55.43
2022-09-02T11:50:58.389Z,53.33
2022-09-02T11:52:01.333Z,62.36
2022-09-02T11:52:58.321Z,64.61
2022-09-02T11:53:58.380Z,66.71
2022-09-02T11:55:02.384Z,63.33
2022-09-02T11:55:59.276Z,65.26
2022-09-02T11:56:58.276Z,64.94
2022-09-02T11:57:58.509Z,65.90
2022-09-02T11:58:58.278Z,58.97
2022-09-02T11:59:58.255Z,65.58
2022-09-02T12:00:58.253Z,65.74
2022-09-02T12:01:58.252Z,60.59
2022-09-02T12:02:58.214Z,63.33
2022-09-02T12:04:48.571Z,65.42
2022-09-02T12:05:01.571Z,60.42
2022-09-02T12:05:59.363Z,66.71
2022-09-02T12:06:58.399Z,62.84
2022-09-02T12:07:58.215Z,64.94
2022-09-02T12:08:58.184Z,65.26
2022-09-02T12:09:58.204Z,65.10
2022-09-02T12:10:58.195Z,65.90
2022-09-02T12:11:58.180Z,64.29
2022-09-02T12:12:58.162Z,65.90
2022-09-02T12:13:58.173Z,63.49
2022-09-02T12:14:59.082Z,65.90
2022-09-02T12:15:58.179Z,62.04
2022-09-02T12:16:58.141Z,67.51
2022-09-02T12:17:58.139Z,66.23
2022-09-02T12:18:58.111Z,67.03
2022-09-02T12:19:58.169Z,65.10
2022-09-02T12:20:58.134Z,65.90
2022-09-02T12:21:58.357Z,64.13
2022-09-02T12:22:59.169Z,66.71
2022-09-02T12:23:58.077Z,65.10
2022-09-02T12:24:58.086Z,65.90
2022-09-02T12:25:58.124Z,65.74
2022-09-02T12:26:59.599Z,65.10
2022-09-02T12:27:58.287Z,65.42
2022-09-02T12:28:58.064Z,65.10
2022-09-02T12:29:58.056Z,66.06
2022-09-02T12:30:58.852Z,56.40
2022-09-02T12:31:58.016Z,67.19
2022-09-02T12:32:59.040Z,61.23
2022-09-02T12:33:58.036Z,62.04
2022-09-02T12:34:59.061Z,64.13
2022-09-02T12:35:58.008Z,67.03
2022-09-02T12:36:58.008Z,64.94
2022-09-02T12:37:57.996Z,58.97
2022-09-02T12:38:57.996Z,63.00
2022-09-02T12:39:58.632Z,66.23
2022-09-02T12:40:58.026Z,64.61
2022-09-02T12:41:58.053Z,68.80
2022-09-02T12:42:57.971Z,66.71
2022-09-02T12:43:57.951Z,60.42
2022-09-02T12:44:57.944Z,63.33
2022-09-02T12:45:57.972Z,61.39
2022-09-02T12:46:58.050Z,65.58
2022-09-02T12:47:57.935Z,58.17
2022-09-02T12:48:57.922Z,60.10
2022-09-02T12:49:57.903Z,55.91
2022-09-02T12:50:57.932Z,66.55
2022-09-02T12:51:57.888Z,64.13
2022-09-02T12:52:57.896Z,66.55
2022-09-02T12:53:57.905Z,66.71
2022-09-02T12:54:57.899Z,66.55